Time,TemperatureF,DewpointF,PressureIn,WindDirection,WindDirectionDegrees,WindSpeedMPH,WindSpeedGustMPH,Humidity,HourlyPrecipIn,Conditions,Clouds,dailyrainin,SoftwareType,DateUTC
2013-09-09 00:01:00,55.4,50.6,30.07,SSE,153,0.0,0.0,84,0.00,,,0.00,Wunderground v.1.15,2013-09-09 04:01:00,
2013-09-09 00:02:00,55.4,50.6,30.06,SSE,153,0.0,0.0,84,0.00,,,0.00,Wunderground v.1.15,2013-09-09 04:02:00,
2013-09-09 00:03:00,55.3,50.5,30.07,SSE,153,0.0,0.0,84,0.00,,,0.00,Wunderground v.1.15,2013-09-09 04:03:00,
2013-09-09 00:05:00,55.3,50.5,30.07,SSE,153,0.0,0.0,84,0.00,,,0.00,Wunderground v.1.15,2013-09-09 04:05:00,
2013-09-09 00:12:00,55.0,50.6,30.07,SSE,153,0.0,0.0,85,0.00,,,0.00,Wunderground v.1.15,2013-09-09 04:12:00,
2013-09-09 00:17:00,54.9,50.5,30.06,SSE,153,0.0,0.0,85,0.00,,,0.00,Wunderground v.1.15,2013-09-09 04:17:00,
2013-09-09 00:21:00,54.7,50.3,30.06,SSE,153,0.0,0.0,85,0.00,,,0.00,Wunderground v.1.15,2013-09-09 04:21:00,
2013-09-09 00:25:00,54.6,50.5,30.06,SSE,153,0.0,0.0,86,0.00,,,0.00,Wunderground v.1.15,2013-09-09 04:25:00,
2013-09-09 00:30:00,54.3,50.2,30.06,SSE,153,0.0,0.0,86,0.00,,,0.00,Wunderground v.1.15,2013-09-09 04:30:00,
2013-09-09 00:36:00,54.2,50.4,30.06,SSE,153,0.0,0.0,87,0.00,,,0.00,Wunderground v.1.15,2013-09-09 04:36:00,
2013-09-09 00:41:00,54.1,50.3,30.06,SSE,153,0.0,0.0,87,0.00,,,0.00,Wunderground v.1.15,2013-09-09 04:41:00,
2013-09-09 00:46:00,54.1,50.3,30.06,SSE,153,0.0,0.0,87,0.00,,,0.00,Wunderground v.1.15,2013-09-09 04:46:00,
2013-09-09 00:52:00,54.0,50.2,30.06,SSE,153,0.0,0.0,87,0.00,,,0.00,Wunderground v.1.15,2013-09-09 04:52:00,
2013-09-09 00:57:00,53.9,50.1,30.07,SSE,153,0.0,0.0,87,0.00,,,0.00,Wunderground v.1.15,2013-09-09 04:57:00,
2013-09-09 01:04:00,53.7,50.2,30.07,SSE,153,0.0,0.0,88,0.00,,,0.00,Wunderground v.1.15,2013-09-09 05:04:00,
2013-09-09 01:09:00,53.6,50.1,30.07,SSE,153,0.0,0.0,88,0.00,,,0.00,Wunderground v.1.15,2013-09-09 05:09:00,
2013-09-09 01:15:00,53.3,49.8,30.07,SSE,153,0.0,0.0,88,0.00,,,0.00,Wunderground v.1.15,2013-09-09 05:15:00,
2013-09-09 01:21:00,53.1,49.6,30.08,SSE,153,0.0,0.0,88,0.00,,,0.00,Wunderground v.1.15,2013-09-09 05:21:00,
2013-09-09 01:26:00,52.9,49.4,30.08,SSE,153,0.0,0.0,88,0.00,,,0.00,Wunderground v.1.15,2013-09-09 05:26:00,
2013-09-09 01:31:00,52.5,49.4,30.08,SSE,153,0.0,0.0,89,0.00,,,0.00,Wunderground v.1.15,2013-09-09 05:31:00,
2013-09-09 01:36:00,52.3,49.2,30.08,SSE,153,0.0,0.0,89,0.00,,,0.00,Wunderground v.1.15,2013-09-09 05:36:00,
2013-09-09 01:42:00,52.0,48.9,30.08,SSE,153,0.0,0.0,89,0.00,,,0.00,Wunderground v.1.15,2013-09-09 05:42:00,
2013-09-09 01:47:00,51.8,49.0,30.08,SSE,153,0.0,0.0,90,0.00,,,0.00,Wunderground v.1.15,2013-09-09 05:47:00,
2013-09-09 01:53:00,51.6,48.8,30.08,SSE,153,0.0,0.0,90,0.00,,,0.00,Wunderground v.1.15,2013-09-09 05:53:00,
2013-09-09 01:58:00,51.4,48.6,30.08,SSE,153,0.0,0.0,90,0.00,,,0.00,Wunderground v.1.15,2013-09-09 05:58:00,
2013-09-09 02:04:00,51.2,48.4,30.08,SSE,153,0.0,0.0,90,0.00,,,0.00,Wunderground v.1.15,2013-09-09 06:04:00,
2013-09-09 02:09:00,51.0,48.2,30.08,SSE,153,0.0,0.0,90,0.00,,,0.00,Wunderground v.1.15,2013-09-09 06:09:00,
2013-09-09 02:15:00,50.8,48.3,30.07,SSE,153,0.0,0.0,91,0.00,,,0.00,Wunderground v.1.15,2013-09-09 06:15:00,
2013-09-09 02:20:00,50.7,48.5,30.07,SSE,153,0.0,0.0,92,0.00,,,0.00,Wunderground v.1.15,2013-09-09 06:20:00,
2013-09-09 02:25:00,50.8,48.6,30.07,SSE,153,0.0,0.0,92,0.00,,,0.00,Wunderground v.1.15,2013-09-09 06:25:00,
2013-09-09 02:31:00,51.2,49.2,30.07,SSE,153,0.0,0.0,93,0.00,,,0.00,Wunderground v.1.15,2013-09-09 06:31:00,
2013-09-09 02:36:00,51.6,49.6,30.07,SSE,153,0.0,0.0,93,0.00,,,0.00,Wunderground v.1.15,2013-09-09 06:36:00,
2013-09-09 02:42:00,52.2,50.2,30.07,SSE,153,0.0,0.0,93,0.00,,,0.00,Wunderground v.1.15,2013-09-09 06:42:00,
2013-09-09 02:47:00,52.6,50.6,30.07,SSE,159,0.0,2.0,93,0.00,,,0.00,Wunderground v.1.15,2013-09-09 06:47:00,
2013-09-09 02:53:00,53.4,51.4,30.06,SSE,157,1.0,2.0,93,0.00,,,0.00,Wunderground v.1.15,2013-09-09 06:53:00,
2013-09-09 02:58:00,54.1,52.1,30.07,SSE,154,1.0,4.0,93,0.00,,,0.00,Wunderground v.1.15,2013-09-09 06:58:00,
2013-09-09 03:04:00,54.7,52.4,30.06,SSE,154,1.0,1.0,92,0.00,,,0.00,Wunderground v.1.15,2013-09-09 07:04:00,
2013-09-09 03:09:00,55.1,52.5,30.06,SSE,151,0.0,2.0,91,0.00,,,0.00,Wunderground v.1.15,2013-09-09 07:09:00,
2013-09-09 03:15:00,55.6,53.0,30.06,SSE,151,0.0,2.0,91,0.00,,,0.00,Wunderground v.1.15,2013-09-09 07:15:00,
2013-09-09 03:21:00,55.9,53.0,30.06,SSE,151,0.0,2.0,90,0.00,,,0.00,Wunderground v.1.15,2013-09-09 07:21:00,
2013-09-09 03:26:00,56.2,53.3,30.06,SSE,151,0.0,0.0,90,0.00,,,0.00,Wunderground v.1.15,2013-09-09 07:26:00,
2013-09-09 03:32:00,56.4,53.5,30.06,SSE,151,0.0,0.0,90,0.00,,,0.00,Wunderground v.1.15,2013-09-09 07:32:00,
2013-09-09 03:37:00,56.4,53.5,30.07,SSE,150,0.0,0.0,90,0.00,,,0.00,Wunderground v.1.15,2013-09-09 07:37:00,
2013-09-09 03:43:00,56.5,53.6,30.07,SSE,151,0.0,0.0,90,0.00,,,0.00,Wunderground v.1.15,2013-09-09 07:43:00,
2013-09-09 03:48:00,56.5,53.6,30.07,SSE,150,0.0,0.0,90,0.00,,,0.00,Wunderground v.1.15,2013-09-09 07:48:00,
2013-09-09 03:54:00,56.4,53.5,30.07,SSE,151,0.0,0.0,90,0.00,,,0.00,Wunderground v.1.15,2013-09-09 07:54:00,
2013-09-09 04:01:00,56.4,53.5,30.07,SSE,151,0.0,0.0,90,0.00,,,0.00,Wunderground v.1.15,2013-09-09 08:01:00,
2013-09-09 04:06:00,56.4,53.5,30.07,SSE,150,0.0,0.0,90,0.00,,,0.00,Wunderground v.1.15,2013-09-09 08:06:00,
2013-09-09 04:12:00,56.3,53.4,30.07,SSE,151,0.0,0.0,90,0.00,,,0.00,Wunderground v.1.15,2013-09-09 08:12:00,
2013-09-09 04:17:00,56.3,53.4,30.06,SSE,150,0.0,0.0,90,0.00,,,0.00,Wunderground v.1.15,2013-09-09 08:17:00,
2013-09-09 04:22:00,56.3,53.7,30.06,SSE,151,0.0,0.0,91,0.00,,,0.00,Wunderground v.1.15,2013-09-09 08:22:00,
2013-09-09 04:27:00,56.4,53.8,30.05,SSE,151,0.0,2.0,91,0.00,,,0.00,Wunderground v.1.15,2013-09-09 08:27:00,
2013-09-09 04:33:00,56.7,54.4,30.05,SE,146,0.0,0.0,92,0.00,,,0.00,Wunderground v.1.15,2013-09-09 08:33:00,
2013-09-09 04:40:00,57.2,54.6,30.06,SE,145,0.0,1.0,91,0.00,,,0.00,Wunderground v.1.15,2013-09-09 08:40:00,
2013-09-09 04:45:00,57.6,55.0,30.06,SE,146,0.0,1.0,91,0.00,,,0.00,Wunderground v.1.15,2013-09-09 08:45:00,
2013-09-09 04:52:00,58.1,55.5,30.06,SSE,150,1.0,1.0,91,0.00,,,0.00,Wunderground v.1.15,2013-09-09 08:52:00,
2013-09-09 04:57:00,58.4,55.5,30.05,SSE,150,1.0,1.0,90,0.00,,,0.00,Wunderground v.1.15,2013-09-09 08:57:00,
2013-09-09 05:03:00,58.7,55.8,30.05,SSE,164,1.0,1.0,90,0.00,,,0.00,Wunderground v.1.15,2013-09-09 09:03:00,
2013-09-09 05:08:00,59.0,56.1,30.05,SSE,161,1.0,4.0,90,0.00,,,0.00,Wunderground v.1.15,2013-09-09 09:08:00,
2013-09-09 05:13:00,59.0,55.8,30.05,SE,138,1.0,4.0,89,0.00,,,0.00,Wunderground v.1.15,2013-09-09 09:13:00,
2013-09-09 05:18:00,59.2,56.0,30.05,SSE,148,1.0,4.0,89,0.00,,,0.00,Wunderground v.1.15,2013-09-09 09:18:00,
2013-09-09 05:25:00,59.4,55.8,30.05,SSE,161,1.0,2.0,88,0.00,,,0.00,Wunderground v.1.15,2013-09-09 09:25:00,
2013-09-09 05:30:00,59.6,56.0,30.05,SSE,161,1.0,2.0,88,0.00,,,0.00,Wunderground v.1.15,2013-09-09 09:30:00,
2013-09-09 05:35:00,59.8,56.2,30.05,SSE,157,1.0,4.0,88,0.00,,,0.00,Wunderground v.1.15,2013-09-09 09:35:00,
2013-09-09 05:41:00,60.0,56.4,30.04,South,171,1.0,2.0,88,0.00,,,0.00,Wunderground v.1.15,2013-09-09 09:41:00,
2013-09-09 05:46:00,60.2,56.6,30.04,SSE,165,1.0,4.0,88,0.00,,,0.00,Wunderground v.1.15,2013-09-09 09:46:00,
2013-09-09 05:51:00,60.3,56.4,30.04,South,178,1.0,1.0,87,0.00,,,0.00,Wunderground v.1.15,2013-09-09 09:51:00,
2013-09-09 05:57:00,60.4,56.5,30.04,South,178,1.0,1.0,87,0.00,,,0.00,Wunderground v.1.15,2013-09-09 09:57:00,
2013-09-09 06:02:00,60.4,56.5,30.04,South,178,0.0,2.0,87,0.00,,,0.00,Wunderground v.1.15,2013-09-09 10:02:00,
2013-09-09 06:07:00,60.5,56.6,30.04,South,171,0.0,3.0,87,0.00,,,0.00,Wunderground v.1.15,2013-09-09 10:07:00,
2013-09-09 06:13:00,60.7,56.8,30.04,South,179,1.0,3.0,87,0.00,,,0.00,Wunderground v.1.15,2013-09-09 10:13:00,
2013-09-09 06:18:00,60.8,56.9,30.04,SW,223,2.0,3.0,87,0.00,,,0.00,Wunderground v.1.15,2013-09-09 10:18:00,
2013-09-09 06:24:00,60.9,56.7,30.04,SSE,161,2.0,2.0,86,0.00,,,0.00,Wunderground v.1.15,2013-09-09 10:24:00,
2013-09-09 06:30:00,61.0,56.8,30.04,South,185,2.0,5.0,86,0.00,,,0.00,Wunderground v.1.15,2013-09-09 10:30:00,
2013-09-09 06:36:00,61.1,56.9,30.04,South,176,3.0,4.0,86,0.00,,,0.00,Wunderground v.1.15,2013-09-09 10:36:00,
2013-09-09 06:41:00,61.1,56.9,30.04,South,178,3.0,3.0,86,0.00,,,0.00,Wunderground v.1.15,2013-09-09 10:41:00,
2013-09-09 06:46:00,61.1,56.9,30.05,South,177,2.0,4.0,86,0.00,,,0.00,Wunderground v.1.15,2013-09-09 10:46:00,
2013-09-09 06:52:00,61.1,56.9,30.05,South,186,1.0,3.0,86,0.00,,,0.00,Wunderground v.1.15,2013-09-09 10:52:00,
2013-09-09 06:58:00,61.1,56.9,30.05,SSW,209,1.0,3.0,86,0.00,,,0.00,Wunderground v.1.15,2013-09-09 10:58:00,
2013-09-09 07:04:00,61.1,56.9,30.06,South,177,1.0,3.0,86,0.00,,,0.00,Wunderground v.1.15,2013-09-09 11:04:00,
2013-09-09 07:10:00,61.2,57.0,30.06,South,176,1.0,3.0,86,0.00,,,0.00,Wunderground v.1.15,2013-09-09 11:10:00,
2013-09-09 07:16:00,61.3,57.1,30.05,South,190,1.0,4.0,86,0.00,,,0.00,Wunderground v.1.15,2013-09-09 11:16:00,
2013-09-09 07:22:00,61.3,56.8,30.05,South,191,1.0,1.0,85,0.00,,,0.00,Wunderground v.1.15,2013-09-09 11:22:00,
2013-09-09 07:28:00,61.4,56.8,30.06,South,176,1.0,1.0,85,0.00,,,0.00,Wunderground v.1.15,2013-09-09 11:28:00,
2013-09-09 07:34:00,61.5,56.9,30.05,SSW,196,1.0,2.0,85,0.00,,,0.00,Wunderground v.1.15,2013-09-09 11:34:00,
2013-09-09 07:40:00,61.6,57.0,30.05,SSW,193,1.0,2.0,85,0.00,,,0.00,Wunderground v.1.15,2013-09-09 11:40:00,
2013-09-09 07:46:00,61.7,57.1,30.05,SSW,194,0.0,1.0,85,0.00,,,0.00,Wunderground v.1.15,2013-09-09 11:46:00,
2013-09-09 07:51:00,61.7,56.8,30.05,SSW,200,0.0,0.0,84,0.00,,,0.00,Wunderground v.1.15,2013-09-09 11:51:00,
2013-09-09 07:57:00,61.7,56.8,30.04,SSW,199,1.0,3.0,84,0.00,,,0.00,Wunderground v.1.15,2013-09-09 11:57:00,
2013-09-09 08:03:00,61.7,56.8,30.04,SSW,205,1.0,2.0,84,0.00,,,0.00,Wunderground v.1.15,2013-09-09 12:03:00,
2013-09-09 08:09:00,61.7,56.8,30.04,SSW,200,1.0,2.0,84,0.00,,,0.00,Wunderground v.1.15,2013-09-09 12:09:00,
2013-09-09 08:14:00,61.8,56.6,30.04,SSW,193,1.0,2.0,83,0.00,,,0.00,Wunderground v.1.15,2013-09-09 12:14:00,
2013-09-09 08:19:00,61.8,56.6,30.03,South,186,1.0,5.0,83,0.00,,,0.00,Wunderground v.1.15,2013-09-09 12:19:00,
2013-09-09 08:24:00,61.9,56.7,30.04,South,186,1.0,2.0,83,0.00,,,0.00,Wunderground v.1.15,2013-09-09 12:24:00,
2013-09-09 08:38:00,62.2,56.6,30.05,SSE,160,1.0,2.0,82,0.00,,,0.00,Wunderground v.1.15,2013-09-09 12:38:00,
2013-09-09 08:44:00,62.3,56.7,30.04,South,186,0.0,1.0,82,0.00,,,0.00,Wunderground v.1.15,2013-09-09 12:44:00,
2013-09-09 08:49:00,62.4,56.8,30.05,South,186,0.0,2.0,82,0.00,,,0.00,Wunderground v.1.15,2013-09-09 12:49:00,
2013-09-09 08:55:00,62.5,56.6,30.05,South,174,1.0,2.0,81,0.00,,,0.00,Wunderground v.1.15,2013-09-09 12:55:00,
2013-09-09 09:00:00,62.6,56.7,30.04,SSE,165,1.0,3.0,81,0.00,,,0.00,Wunderground v.1.15,2013-09-09 13:00:00,
2013-09-09 09:05:00,62.7,56.4,30.04,South,178,1.0,4.0,80,0.00,,,0.00,Wunderground v.1.15,2013-09-09 13:05:00,
2013-09-09 09:10:00,62.9,56.6,30.04,SSE,150,1.0,4.0,80,0.00,,,0.00,Wunderground v.1.15,2013-09-09 13:10:00,
2013-09-09 09:16:00,63.1,56.8,30.04,SE,146,1.0,4.0,80,0.00,,,0.00,Wunderground v.1.15,2013-09-09 13:16:00,
2013-09-09 09:22:00,63.3,56.7,30.04,South,169,0.0,1.0,79,0.00,,,0.00,Wunderground v.1.15,2013-09-09 13:22:00,
2013-09-09 09:28:00,63.5,56.9,30.04,South,174,1.0,2.0,79,0.00,,,0.00,Wunderground v.1.15,2013-09-09 13:28:00,
2013-09-09 09:34:00,63.7,56.7,30.03,SSW,194,2.0,2.0,78,0.00,,,0.00,Wunderground v.1.15,2013-09-09 13:34:00,
2013-09-09 09:40:00,64.0,57.0,30.03,SSE,159,1.0,4.0,78,0.00,,,0.00,Wunderground v.1.15,2013-09-09 13:40:00,
2013-09-09 09:46:00,64.2,57.2,30.04,SW,225,1.0,3.0,78,0.00,,,0.00,Wunderground v.1.15,2013-09-09 13:46:00,
2013-09-09 09:51:00,64.3,57.6,30.03,SW,217,1.0,1.0,79,0.00,,,0.00,Wunderground v.1.15,2013-09-09 13:51:00,
2013-09-09 09:56:00,64.4,57.4,30.03,SSE,149,1.0,3.0,78,0.00,,,0.00,Wunderground v.1.15,2013-09-09 13:56:00,
2013-09-09 10:02:00,64.5,57.8,30.03,SW,236,1.0,3.0,79,0.00,,,0.00,Wunderground v.1.15,2013-09-09 14:02:00,
2013-09-09 10:08:00,64.5,57.8,30.03,SSE,149,1.0,3.0,79,0.00,,,0.00,Wunderground v.1.15,2013-09-09 14:08:00,
2013-09-09 10:13:00,64.5,57.8,30.03,SW,224,2.0,5.0,79,0.00,,,0.00,Wunderground v.1.15,2013-09-09 14:13:00,
2013-09-09 10:18:00,64.6,57.9,30.03,SW,225,2.0,5.0,79,0.00,,,0.00,Wunderground v.1.15,2013-09-09 14:18:00,
2013-09-09 10:24:00,64.7,57.7,30.03,SSW,213,1.0,2.0,78,0.00,,,0.00,Wunderground v.1.15,2013-09-09 14:24:00,
2013-09-09 10:30:00,64.7,57.7,30.04,SSW,194,1.0,4.0,78,0.00,,,0.00,Wunderground v.1.15,2013-09-09 14:30:00,
2013-09-09 10:35:00,64.8,58.1,30.04,SSW,192,1.0,1.0,79,0.00,,,0.00,Wunderground v.1.15,2013-09-09 14:35:00,
2013-09-09 10:41:00,64.9,58.2,30.05,SSW,196,0.0,0.0,79,0.00,,,0.00,Wunderground v.1.15,2013-09-09 14:41:00,
2013-09-09 10:46:00,65.0,58.3,30.04,SSW,196,0.0,0.0,79,0.00,,,0.00,Wunderground v.1.15,2013-09-09 14:46:00,
2013-09-09 10:52:00,65.1,58.4,30.04,South,191,0.0,0.0,79,0.00,,,0.00,Wunderground v.1.15,2013-09-09 14:52:00,
2013-09-09 10:57:00,65.0,58.3,30.04,South,191,1.0,1.0,79,0.00,,,0.00,Wunderground v.1.15,2013-09-09 14:57:00,
2013-09-09 11:03:00,65.0,58.7,30.05,South,191,0.0,0.0,80,0.00,,,0.00,Wunderground v.1.15,2013-09-09 15:03:00,
2013-09-09 11:09:00,64.9,58.6,30.05,South,177,0.0,0.0,80,0.00,,,0.00,Wunderground v.1.15,2013-09-09 15:09:00,
2013-09-09 11:14:00,64.9,58.9,30.05,SSW,196,1.0,2.0,81,0.00,,,0.00,Wunderground v.1.15,2013-09-09 15:14:00,
2013-09-09 11:20:00,64.8,59.2,30.05,SSW,196,1.0,3.0,82,0.00,,,0.00,Wunderground v.1.15,2013-09-09 15:20:00,
2013-09-09 11:25:00,64.7,59.1,30.05,SSW,209,1.0,4.0,82,0.00,,,0.00,Wunderground v.1.15,2013-09-09 15:25:00,
2013-09-09 11:31:00,64.6,59.0,30.04,SSW,200,2.0,2.0,82,0.00,,,0.00,Wunderground v.1.15,2013-09-09 15:31:00,
2013-09-09 11:36:00,64.3,59.0,30.04,SSW,198,3.0,4.0,83,0.00,,,0.01,Wunderground v.1.15,2013-09-09 15:36:00,
2013-09-09 11:42:00,64.0,59.4,30.04,SSW,211,2.0,2.0,85,0.06,,,0.02,Wunderground v.1.15,2013-09-09 15:42:00,
2013-09-09 11:48:00,63.8,59.9,30.04,SSW,210,2.0,4.0,87,0.13,,,0.03,Wunderground v.1.15,2013-09-09 15:48:00,
2013-09-09 11:54:00,63.6,59.7,30.03,SW,221,2.0,4.0,87,0.07,,,0.03,Wunderground v.1.15,2013-09-09 15:54:00,
2013-09-09 11:59:00,63.5,59.9,30.04,SW,226,2.0,4.0,88,0.04,,,0.03,Wunderground v.1.15,2013-09-09 15:59:00,
2013-09-09 12:04:00,63.4,59.8,30.03,SW,223,1.0,5.0,88,0.00,,,0.03,Wunderground v.1.15,2013-09-09 16:04:00,
2013-09-09 12:10:00,63.5,60.2,30.03,SW,223,1.0,5.0,89,0.00,,,0.04,Wunderground v.1.15,2013-09-09 16:10:00,
2013-09-09 12:15:00,63.7,60.7,30.03,SSW,205,0.0,4.0,90,0.00,,,0.04,Wunderground v.1.15,2013-09-09 16:15:00,
2013-09-09 12:21:00,63.7,60.7,30.02,South,190,1.0,3.0,90,0.00,,,0.04,Wunderground v.1.15,2013-09-09 16:21:00,
2013-09-09 12:26:00,63.7,60.7,30.01,South,182,1.0,4.0,90,0.00,,,0.04,Wunderground v.1.15,2013-09-09 16:26:00,
2013-09-09 12:32:00,63.6,60.6,30.01,SSW,206,2.0,2.0,90,0.00,,,0.04,Wunderground v.1.15,2013-09-09 16:32:00,
2013-09-09 12:37:00,63.6,60.9,30.01,SSE,160,1.0,2.0,91,0.00,,,0.04,Wunderground v.1.15,2013-09-09 16:37:00,
2013-09-09 12:44:00,63.6,60.9,30.01,SW,227,1.0,1.0,91,0.00,,,0.04,Wunderground v.1.15,2013-09-09 16:44:00,
2013-09-09 12:49:00,63.6,60.9,30.02,SSW,207,0.0,1.0,91,0.00,,,0.05,Wunderground v.1.15,2013-09-09 16:49:00,
2013-09-09 12:55:00,63.5,60.8,30.01,SSW,206,0.0,2.0,91,0.00,,,0.05,Wunderground v.1.15,2013-09-09 16:55:00,
2013-09-09 13:00:00,63.5,60.8,30.01,SSW,206,0.0,3.0,91,0.00,,,0.05,Wunderground v.1.15,2013-09-09 17:00:00,
2013-09-09 13:06:00,63.4,60.7,30.01,South,189,0.0,2.0,91,0.00,,,0.05,Wunderground v.1.15,2013-09-09 17:06:00,
2013-09-09 13:12:00,63.5,61.1,30.00,South,188,0.0,3.0,92,0.00,,,0.05,Wunderground v.1.15,2013-09-09 17:12:00,
2013-09-09 13:18:00,63.5,61.1,30.00,South,184,0.0,3.0,92,0.00,,,0.05,Wunderground v.1.15,2013-09-09 17:18:00,
2013-09-09 13:24:00,63.7,61.6,30.00,SSE,152,1.0,2.0,93,0.00,,,0.05,Wunderground v.1.15,2013-09-09 17:24:00,
2013-09-09 13:30:00,64.0,61.9,30.00,South,176,1.0,4.0,93,0.00,,,0.05,Wunderground v.1.15,2013-09-09 17:30:00,
2013-09-09 13:35:00,64.2,62.1,30.00,SSE,161,1.0,3.0,93,0.00,,,0.05,Wunderground v.1.15,2013-09-09 17:35:00,
2013-09-09 13:40:00,64.5,62.4,29.99,SSE,161,1.0,3.0,93,0.00,,,0.05,Wunderground v.1.15,2013-09-09 17:40:00,
2013-09-09 13:45:00,64.9,62.8,29.99,SSE,148,0.0,3.0,93,0.00,,,0.05,Wunderground v.1.15,2013-09-09 17:45:00,
2013-09-09 13:51:00,65.2,63.1,29.99,South,191,1.0,4.0,93,0.00,,,0.05,Wunderground v.1.15,2013-09-09 17:51:00,
2013-09-09 13:57:00,65.7,63.6,29.99,SSW,194,1.0,4.0,93,0.00,,,0.05,Wunderground v.1.15,2013-09-09 17:57:00,
2013-09-09 14:03:00,66.1,63.7,29.99,SW,223,1.0,3.0,92,0.00,,,0.05,Wunderground v.1.15,2013-09-09 18:03:00,
2013-09-09 14:08:00,66.7,64.3,29.99,SSW,203,1.0,3.0,92,0.00,,,0.05,Wunderground v.1.15,2013-09-09 18:08:00,
2013-09-09 14:14:00,67.4,65.0,29.99,SSW,209,2.0,4.0,92,0.00,,,0.05,Wunderground v.1.15,2013-09-09 18:14:00,
2013-09-09 14:20:00,68.2,65.5,29.99,SW,219,2.0,4.0,91,0.00,,,0.05,Wunderground v.1.15,2013-09-09 18:20:00,
2013-09-09 14:25:00,68.5,65.4,29.99,SSW,208,1.0,4.0,90,0.00,,,0.05,Wunderground v.1.15,2013-09-09 18:25:00,
2013-09-09 14:31:00,68.8,65.7,29.98,SSW,211,1.0,1.0,90,0.00,,,0.05,Wunderground v.1.15,2013-09-09 18:31:00,
2013-09-09 14:36:00,69.1,66.0,29.98,SW,217,1.0,4.0,90,0.00,,,0.05,Wunderground v.1.15,2013-09-09 18:36:00,
2013-09-09 14:41:00,69.2,65.8,29.98,SSW,205,2.0,2.0,89,0.00,,,0.05,Wunderground v.1.15,2013-09-09 18:41:00,
2013-09-09 14:46:00,69.3,65.9,29.98,SW,217,3.0,4.0,89,0.00,,,0.05,Wunderground v.1.15,2013-09-09 18:46:00,
2013-09-09 14:52:00,69.7,66.3,29.98,South,184,2.0,2.0,89,0.00,,,0.05,Wunderground v.1.15,2013-09-09 18:52:00,
2013-09-09 14:58:00,70.0,66.3,29.97,SSW,212,2.0,5.0,88,0.00,,,0.05,Wunderground v.1.15,2013-09-09 18:58:00,
2013-09-09 15:03:00,70.5,67.1,29.97,South,186,3.0,4.0,89,0.00,,,0.05,Wunderground v.1.15,2013-09-09 19:03:00,
2013-09-09 15:08:00,70.9,67.2,29.97,South,169,2.0,4.0,88,0.00,,,0.05,Wunderground v.1.15,2013-09-09 19:08:00,
2013-09-09 15:14:00,71.3,67.6,29.96,SW,219,1.0,2.0,88,0.00,,,0.05,Wunderground v.1.15,2013-09-09 19:14:00,
2013-09-09 15:19:00,71.8,67.7,29.96,South,171,2.0,5.0,87,0.00,,,0.05,Wunderground v.1.15,2013-09-09 19:19:00,
2013-09-09 15:25:00,72.1,67.7,29.96,South,187,2.0,3.0,86,0.00,,,0.05,Wunderground v.1.15,2013-09-09 19:25:00,
2013-09-09 15:31:00,72.5,68.4,29.95,SSE,168,1.0,2.0,87,0.00,,,0.05,Wunderground v.1.15,2013-09-09 19:31:00,
2013-09-09 15:37:00,72.9,68.1,29.95,SW,222,1.0,4.0,85,0.00,,,0.05,Wunderground v.1.15,2013-09-09 19:37:00,
2013-09-09 15:43:00,73.3,68.5,29.95,SW,225,2.0,2.0,85,0.00,,,0.05,Wunderground v.1.15,2013-09-09 19:43:00,
2013-09-09 15:48:00,73.8,69.0,29.95,South,188,2.0,5.0,85,0.00,,,0.05,Wunderground v.1.15,2013-09-09 19:48:00,
2013-09-09 15:53:00,74.1,69.0,29.95,South,172,2.0,2.0,84,0.00,,,0.05,Wunderground v.1.15,2013-09-09 19:53:00,
2013-09-09 15:59:00,74.5,69.0,29.95,SSW,192,1.0,2.0,83,0.00,,,0.05,Wunderground v.1.15,2013-09-09 19:59:00,
2013-09-09 16:06:00,75.1,69.6,29.96,SSW,210,1.0,2.0,83,0.00,,,0.05,Wunderground v.1.15,2013-09-09 20:06:00,
2013-09-09 16:11:00,75.5,70.0,29.95,SE,136,1.0,1.0,83,0.00,,,0.05,Wunderground v.1.15,2013-09-09 20:11:00,
2013-09-09 16:17:00,75.8,69.6,29.94,SSE,165,1.0,2.0,81,0.00,,,0.05,Wunderground v.1.15,2013-09-09 20:17:00,
2013-09-09 16:22:00,76.1,70.2,29.94,SE,134,1.0,1.0,82,0.00,,,0.05,Wunderground v.1.15,2013-09-09 20:22:00,
2013-09-09 16:41:00,77.0,70.4,29.93,SSW,200,1.0,2.0,80,0.00,,,0.05,Wunderground v.1.15,2013-09-09 20:41:00,
2013-09-09 16:47:00,77.1,70.5,29.93,SW,222,2.0,3.0,80,0.00,,,0.05,Wunderground v.1.15,2013-09-09 20:47:00,
2013-09-09 16:53:00,77.2,70.9,29.93,SSW,197,2.0,2.0,81,0.00,,,0.05,Wunderground v.1.15,2013-09-09 20:53:00,
2013-09-09 16:59:00,77.6,71.3,29.93,SSW,195,1.0,2.0,81,0.00,,,0.05,Wunderground v.1.15,2013-09-09 20:59:00,
2013-09-09 17:06:00,77.9,71.2,29.93,SW,227,1.0,1.0,80,0.00,,,0.05,Wunderground v.1.15,2013-09-09 21:06:00,
2013-09-09 17:12:00,77.9,71.2,29.93,South,187,2.0,2.0,80,0.00,,,0.05,Wunderground v.1.15,2013-09-09 21:12:00,
2013-09-09 17:17:00,77.9,70.9,29.92,SSE,160,2.0,2.0,79,0.00,,,0.05,Wunderground v.1.15,2013-09-09 21:17:00,
2013-09-09 17:23:00,78.0,71.0,29.92,SW,223,2.0,3.0,79,0.00,,,0.05,Wunderground v.1.15,2013-09-09 21:23:00,
2013-09-09 17:28:00,78.0,71.0,29.92,SSW,196,2.0,3.0,79,0.00,,,0.05,Wunderground v.1.15,2013-09-09 21:28:00,
2013-09-09 17:36:00,78.1,71.4,29.92,SSW,201,1.0,2.0,80,0.00,,,0.05,Wunderground v.1.15,2013-09-09 21:36:00,
2013-09-09 17:41:00,77.9,71.2,29.92,SSW,208,2.0,2.0,80,0.00,,,0.05,Wunderground v.1.15,2013-09-09 21:41:00,
2013-09-09 17:47:00,77.8,71.1,29.92,South,173,2.0,5.0,80,0.00,,,0.05,Wunderground v.1.15,2013-09-09 21:47:00,
2013-09-09 17:52:00,77.8,71.5,29.92,SSW,200,3.0,5.0,81,0.00,,,0.05,Wunderground v.1.15,2013-09-09 21:52:00,
2013-09-09 17:58:00,77.7,71.0,29.91,SSE,167,3.0,5.0,80,0.00,,,0.05,Wunderground v.1.15,2013-09-09 21:58:00,
2013-09-09 18:05:00,77.4,71.1,29.92,SSW,196,3.0,4.0,81,0.00,,,0.05,Wunderground v.1.15,2013-09-09 22:05:00,
2013-09-09 18:11:00,77.1,70.8,29.91,SSW,212,3.0,10.0,81,0.00,,,0.05,Wunderground v.1.15,2013-09-09 22:11:00,
2013-09-09 18:16:00,77.1,71.2,29.91,SW,229,3.0,10.0,82,0.00,,,0.05,Wunderground v.1.15,2013-09-09 22:16:00,
2013-09-09 18:22:00,77.1,71.2,29.91,SSW,212,2.0,3.0,82,0.00,,,0.05,Wunderground v.1.15,2013-09-09 22:22:00,
2013-09-09 18:27:00,77.0,71.1,29.91,SW,219,2.0,5.0,82,0.00,,,0.05,Wunderground v.1.15,2013-09-09 22:27:00,
2013-09-09 18:34:00,76.7,71.1,29.91,SSW,211,3.0,3.0,83,0.00,,,0.05,Wunderground v.1.15,2013-09-09 22:34:00,
2013-09-09 18:40:00,76.5,70.9,29.92,SSW,200,2.0,6.0,83,0.00,,,0.05,Wunderground v.1.15,2013-09-09 22:40:00,
2013-09-09 18:46:00,76.2,71.0,29.91,South,186,3.0,7.0,84,0.00,,,0.05,Wunderground v.1.15,2013-09-09 22:46:00,
2013-09-09 18:51:00,76.0,70.8,29.91,South,187,2.0,3.0,84,0.00,,,0.05,Wunderground v.1.15,2013-09-09 22:51:00,
2013-09-09 18:57:00,75.7,70.5,29.91,SSW,193,3.0,5.0,84,0.00,,,0.05,Wunderground v.1.15,2013-09-09 22:57:00,
2013-09-09 19:04:00,75.4,70.6,29.90,South,171,2.0,7.0,85,0.00,,,0.05,Wunderground v.1.15,2013-09-09 23:04:00,
2013-09-09 19:10:00,75.0,70.2,29.90,SSW,199,2.0,2.0,85,0.00,,,0.05,Wunderground v.1.15,2013-09-09 23:10:00,
2013-09-09 19:16:00,74.8,70.3,29.90,SSE,160,1.0,2.0,86,0.00,,,0.05,Wunderground v.1.15,2013-09-09 23:16:00,
2013-09-09 19:22:00,74.5,70.0,29.90,SSW,198,1.0,3.0,86,0.00,,,0.05,Wunderground v.1.15,2013-09-09 23:22:00,
2013-09-09 19:28:00,74.1,69.6,29.90,SE,140,2.0,3.0,86,0.00,,,0.05,Wunderground v.1.15,2013-09-09 23:28:00,
2013-09-09 19:33:00,73.8,69.7,29.90,SSW,202,2.0,2.0,87,0.00,,,0.05,Wunderground v.1.15,2013-09-09 23:33:00,
2013-09-09 19:39:00,73.4,69.3,29.90,SSW,207,2.0,3.0,87,0.00,,,0.05,Wunderground v.1.15,2013-09-09 23:39:00,
2013-09-09 19:44:00,73.2,69.4,29.90,SW,214,2.0,2.0,88,0.00,,,0.05,Wunderground v.1.15,2013-09-09 23:44:00,
2013-09-09 19:49:00,72.9,69.1,29.91,SW,224,1.0,2.0,88,0.00,,,0.05,Wunderground v.1.15,2013-09-09 23:49:00,
2013-09-09 19:54:00,72.6,68.8,29.91,SSW,206,1.0,3.0,88,0.00,,,0.05,Wunderground v.1.15,2013-09-09 23:54:00,
2013-09-09 20:00:00,72.4,68.6,29.91,SSW,205,1.0,3.0,88,0.00,,,0.05,Wunderground v.1.15,2013-09-10 00:00:00,
2013-09-09 20:05:00,72.2,68.8,29.91,South,190,0.0,1.0,89,0.00,,,0.05,Wunderground v.1.15,2013-09-10 00:05:00,
2013-09-09 20:11:00,72.1,68.7,29.91,SSW,202,0.0,0.0,89,0.00,,,0.05,Wunderground v.1.15,2013-09-10 00:11:00,
2013-09-09 20:16:00,71.9,68.5,29.91,South,181,1.0,5.0,89,0.00,,,0.05,Wunderground v.1.15,2013-09-10 00:16:00,
2013-09-09 20:22:00,71.8,68.7,29.91,South,181,1.0,1.0,90,0.00,,,0.05,Wunderground v.1.15,2013-09-10 00:22:00,
2013-09-09 20:27:00,71.6,68.5,29.91,South,169,0.0,1.0,90,0.00,,,0.05,Wunderground v.1.15,2013-09-10 00:27:00,
2013-09-09 20:33:00,71.4,68.3,29.92,SSE,166,0.0,1.0,90,0.00,,,0.05,Wunderground v.1.15,2013-09-10 00:33:00,
2013-09-09 20:38:00,71.3,68.5,29.92,SSE,168,0.0,1.0,91,0.00,,,0.05,Wunderground v.1.15,2013-09-10 00:38:00,
2013-09-09 20:44:00,71.2,68.4,29.91,South,178,1.0,4.0,91,0.00,,,0.05,Wunderground v.1.15,2013-09-10 00:44:00,
2013-09-09 20:50:00,71.1,68.3,29.91,SSE,159,1.0,4.0,91,0.00,,,0.05,Wunderground v.1.15,2013-09-10 00:50:00,
2013-09-09 20:55:00,71.0,68.2,29.91,South,185,0.0,2.0,91,0.00,,,0.05,Wunderground v.1.15,2013-09-10 00:55:00,
2013-09-09 21:01:00,70.8,68.0,29.91,South,179,1.0,1.0,91,0.00,,,0.05,Wunderground v.1.15,2013-09-10 01:01:00,
2013-09-09 21:06:00,70.7,67.9,29.91,SSE,165,1.0,4.0,91,0.00,,,0.05,Wunderground v.1.15,2013-09-10 01:06:00,
2013-09-09 21:12:00,70.6,67.8,29.91,SSE,161,1.0,3.0,91,0.00,,,0.05,Wunderground v.1.15,2013-09-10 01:12:00,
2013-09-09 21:17:00,70.6,67.8,29.91,SSW,207,2.0,3.0,91,0.00,,,0.05,Wunderground v.1.15,2013-09-10 01:17:00,
2013-09-09 21:23:00,70.5,68.1,29.91,SSW,208,2.0,4.0,92,0.00,,,0.05,Wunderground v.1.15,2013-09-10 01:23:00,
2013-09-09 21:28:00,70.4,67.6,29.91,SSW,205,1.0,4.0,91,0.00,,,0.05,Wunderground v.1.15,2013-09-10 01:28:00,
2013-09-09 21:33:00,70.3,67.9,29.91,SSW,207,1.0,3.0,92,0.00,,,0.05,Wunderground v.1.15,2013-09-10 01:33:00,
2013-09-09 21:38:00,70.3,67.9,29.91,SSW,202,1.0,3.0,92,0.00,,,0.05,Wunderground v.1.15,2013-09-10 01:38:00,
2013-09-09 21:44:00,70.2,67.8,29.91,SSW,202,1.0,3.0,92,0.00,,,0.05,Wunderground v.1.15,2013-09-10 01:44:00,
2013-09-09 21:50:00,70.2,67.8,29.91,SSW,207,1.0,4.0,92,0.00,,,0.05,Wunderground v.1.15,2013-09-10 01:50:00,
2013-09-09 21:55:00,70.2,67.8,29.91,SSW,198,2.0,5.0,92,0.00,,,0.05,Wunderground v.1.15,2013-09-10 01:55:00,
2013-09-09 22:01:00,70.1,67.7,29.91,SSW,211,2.0,2.0,92,0.00,,,0.05,Wunderground v.1.15,2013-09-10 02:01:00,
2013-09-09 22:06:00,70.1,67.7,29.91,SSW,194,2.0,2.0,92,0.00,,,0.05,Wunderground v.1.15,2013-09-10 02:06:00,
2013-09-09 22:12:00,70.1,67.7,29.91,SSW,202,2.0,6.0,92,0.00,,,0.05,Wunderground v.1.15,2013-09-10 02:12:00,
2013-09-09 22:17:00,70.1,67.7,29.91,SSW,196,1.0,6.0,92,0.00,,,0.05,Wunderground v.1.15,2013-09-10 02:17:00,
2013-09-09 22:22:00,70.1,67.7,29.91,SSW,205,1.0,1.0,92,0.00,,,0.05,Wunderground v.1.15,2013-09-10 02:22:00,
2013-09-09 22:27:00,70.1,67.7,29.91,SSW,198,0.0,1.0,92,0.00,,,0.05,Wunderground v.1.15,2013-09-10 02:27:00,
2013-09-09 22:33:00,70.1,67.7,29.91,South,186,0.0,0.0,92,0.00,,,0.05,Wunderground v.1.15,2013-09-10 02:33:00,
2013-09-09 22:38:00,70.1,67.7,29.91,South,179,0.0,1.0,92,0.00,,,0.05,Wunderground v.1.15,2013-09-10 02:38:00,
2013-09-09 22:44:00,70.1,67.7,29.91,South,176,1.0,4.0,92,0.00,,,0.05,Wunderground v.1.15,2013-09-10 02:44:00,
2013-09-09 22:50:00,70.1,67.7,29.91,SSW,195,1.0,4.0,92,0.00,,,0.05,Wunderground v.1.15,2013-09-10 02:50:00,
2013-09-09 22:55:00,70.1,67.7,29.91,SSW,196,0.0,1.0,92,0.00,,,0.05,Wunderground v.1.15,2013-09-10 02:55:00,
2013-09-09 23:01:00,70.1,67.7,29.90,SSW,210,1.0,7.0,92,0.00,,,0.05,Wunderground v.1.15,2013-09-10 03:01:00,
2013-09-09 23:06:00,70.1,67.7,29.90,SSW,193,2.0,7.0,92,0.00,,,0.05,Wunderground v.1.15,2013-09-10 03:06:00,
2013-09-09 23:12:00,70.1,67.7,29.90,SW,217,1.0,2.0,92,0.00,,,0.05,Wunderground v.1.15,2013-09-10 03:12:00,
2013-09-09 23:17:00,70.1,67.7,29.90,SSW,198,1.0,4.0,92,0.00,,,0.05,Wunderground v.1.15,2013-09-10 03:17:00,
2013-09-09 23:23:00,70.1,67.7,29.90,SW,217,2.0,6.0,92,0.00,,,0.05,Wunderground v.1.15,2013-09-10 03:23:00,
2013-09-09 23:28:00,70.2,67.8,29.90,SW,217,3.0,6.0,92,0.00,,,0.05,Wunderground v.1.15,2013-09-10 03:28:00,
2013-09-09 23:34:00,70.3,67.9,29.89,SW,223,3.0,4.0,92,0.00,,,0.05,Wunderground v.1.15,2013-09-10 03:34:00,
2013-09-09 23:40:00,70.5,68.1,29.89,SW,215,5.0,10.0,92,0.00,,,0.05,Wunderground v.1.15,2013-09-10 03:40:00,
2013-09-09 23:45:00,70.7,68.3,29.89,SW,218,5.0,6.0,92,0.00,,,0.05,Wunderground v.1.15,2013-09-10 03:45:00,
2013-09-09 23:51:00,70.9,68.5,29.88,WSW,254,4.0,4.0,92,0.00,,,0.05,Wunderground v.1.15,2013-09-10 03:51:00,
2013-09-09 23:56:00,71.0,68.2,29.89,SW,235,4.0,6.0,91,0.00,,,0.05,Wunderground v.1.15,2013-09-10 03:56:00,